sensor_id;sensor_type;location;lat;lon;timestamp;pressure;altitude;pressure_sealevel;temperature;humidity
2192;BME280;1102;49.718;11.902;2023-02-28T00:01:06;97151.53;;;-4.42;100.00
2192;BME280;1102;49.718;11.902;2023-02-28T00:03:33;97139.16;;;-4.58;100.00
2192;BME280;1102;49.718;11.902;2023-02-28T00:06:06;97154.16;;;-4.49;100.00
2192;BME280;1102;49.718;11.902;2023-02-28T00:08:33;97114.81;;;-4.69;100.00
2192;BME280;1102;49.718;11.902;2023-02-28T00:11:02;97128.69;;;-4.63;100.00
2192;BME280;1102;49.718;11.902;2023-02-28T00:13:29;97117.81;;;-4.72;100.00
2192;BME280;1102;49.718;11.902;2023-02-28T00:16:04;97127.69;;;-4.62;100.00
2192;BME280;1102;49.718;11.902;2023-02-28T00:18:31;97137.94;;;-4.56;100.00
2192;BME280;1102;49.718;11.902;2023-02-28T00:20:58;97155.75;;;-4.48;100.00
2192;BME280;1102;49.718;11.902;2023-02-28T00:23:26;97142.72;;;-4.59;100.00
2192;BME280;1102;49.718;11.902;2023-02-28T00:25:53;97148.66;;;-4.52;100.00
2192;BME280;1102;49.718;11.902;2023-02-28T00:28:20;97153.81;;;-4.52;100.00
2192;BME280;1102;49.718;11.902;2023-02-28T00:30:47;97145.00;;;-4.44;100.00
2192;BME280;1102;49.718;11.902;2023-02-28T00:33:14;97108.34;;;-4.78;100.00
2192;BME280;1102;49.718;11.902;2023-02-28T00:35:44;97157.00;;;-4.57;100.00
2192;BME280;1102;49.718;11.902;2023-02-28T00:38:15;97125.81;;;-4.80;100.00
2192;BME280;1102;49.718;11.902;2023-02-28T00:40:42;97071.81;;;-5.31;100.00
2192;BME280;1102;49.718;11.902;2023-02-28T00:43:10;97102.97;;;-5.08;100.00
2192;BME280;1102;49.718;11.902;2023-02-28T00:45:36;97140.09;;;-4.78;100.00
2192;BME280;1102;49.718;11.902;2023-02-28T00:48:03;97146.84;;;-4.83;100.00
2192;BME280;1102;49.718;11.902;2023-02-28T00:50:30;97101.78;;;-5.06;100.00
2192;BME280;1102;49.718;11.902;2023-02-28T00:52:57;97142.75;;;-4.91;100.00
2192;BME280;1102;49.718;11.902;2023-02-28T00:55:23;97066.25;;;-5.35;100.00
2192;BME280;1102;49.718;11.902;2023-02-28T00:57:50;97095.16;;;-5.26;100.00
2192;BME280;1102;49.718;11.902;2023-02-28T01:00:17;97112.50;;;-5.09;100.00
2192;BME280;1102;49.718;11.902;2023-02-28T01:02:44;97079.84;;;-5.21;100.00
2192;BME280;1102;49.718;11.902;2023-02-28T01:05:10;97088.75;;;-5.17;100.00
2192;BME280;1102;49.718;11.902;2023-02-28T01:07:37;97081.38;;;-5.07;100.00
2192;BME280;1102;49.718;11.902;2023-02-28T01:10:05;97083.56;;;-5.11;100.00
2192;BME280;1102;49.718;11.902;2023-02-28T01:12:32;97130.97;;;-4.80;100.00
2192;BME280;1102;49.718;11.902;2023-02-28T01:14:58;97112.75;;;-4.85;100.00
2192;BME280;1102;49.718;11.902;2023-02-28T01:17:25;97125.13;;;-4.69;100.00
2192;BME280;1102;49.718;11.902;2023-02-28T01:19:54;97096.59;;;-4.74;100.00
2192;BME280;1102;49.718;11.902;2023-02-28T01:22:24;97122.44;;;-4.56;100.00
2192;BME280;1102;49.718;11.902;2023-02-28T01:24:51;97110.56;;;-4.57;100.00
2192;BME280;1102;49.718;11.902;2023-02-28T01:27:17;97124.25;;;-4.56;100.00
2192;BME280;1102;49.718;11.902;2023-02-28T01:29:44;97052.19;;;-5.01;100.00
2192;BME280;1102;49.718;11.902;2023-02-28T01:32:10;97120.66;;;-4.55;100.00
2192;BME280;1102;49.718;11.902;2023-02-28T01:34:37;97066.69;;;-4.82;100.00
2192;BME280;1102;49.718;11.902;2023-02-28T01:37:04;97116.09;;;-4.53;100.00
2192;BME280;1102;49.718;11.902;2023-02-28T01:39:30;97055.41;;;-4.81;100.00
2192;BME280;1102;49.718;11.902;2023-02-28T01:41:57;97095.97;;;-4.69;100.00
2192;BME280;1102;49.718;11.902;2023-02-28T01:47:34;97114.19;;;-4.64;100.00
2192;BME280;1102;49.718;11.902;2023-02-28T01:50:09;97085.03;;;-4.90;100.00
2192;BME280;1102;49.718;11.902;2023-02-28T01:52:38;97101.97;;;-4.76;100.00
2192;BME280;1102;49.718;11.902;2023-02-28T01:55:06;97105.78;;;-4.78;100.00
2192;BME280;1102;49.718;11.902;2023-02-28T01:57:38;97102.66;;;-4.87;100.00
2192;BME280;1102;49.718;11.902;2023-02-28T02:00:10;97106.56;;;-4.78;100.00
2192;BME280;1102;49.718;11.902;2023-02-28T02:02:42;97053.31;;;-4.97;100.00
2192;BME280;1102;49.718;11.902;2023-02-28T02:05:12;97096.41;;;-4.72;100.00
2192;BME280;1102;49.718;11.902;2023-02-28T02:07:42;97088.22;;;-4.69;100.00
2192;BME280;1102;49.718;11.902;2023-02-28T02:35:42;97075.44;;;-4.58;100.00
2192;BME280;1102;49.718;11.902;2023-02-28T02:38:20;97084.06;;;-4.70;100.00
2192;BME280;1102;49.718;11.902;2023-02-28T02:46:21;97078.22;;;-4.59;100.00
2192;BME280;1102;49.718;11.902;2023-02-28T02:48:50;97080.38;;;-4.56;100.00
2192;BME280;1102;49.718;11.902;2023-02-28T02:51:21;97077.81;;;-4.56;100.00
2192;BME280;1102;49.718;11.902;2023-02-28T02:53:55;97077.53;;;-4.66;100.00
2192;BME280;1102;49.718;11.902;2023-02-28T02:56:27;97061.72;;;-4.77;100.00
2192;BME280;1102;49.718;11.902;2023-02-28T02:59:01;97077.69;;;-4.68;100.00
2192;BME280;1102;49.718;11.902;2023-02-28T03:01:30;97084.66;;;-4.68;100.00
2192;BME280;1102;49.718;11.902;2023-02-28T03:04:02;97085.25;;;-4.66;100.00
2192;BME280;1102;49.718;11.902;2023-02-28T03:06:29;97056.88;;;-4.91;100.00
2192;BME280;1102;49.718;11.902;2023-02-28T03:08:56;97074.34;;;-4.68;100.00
2192;BME280;1102;49.718;11.902;2023-02-28T03:11:23;97049.44;;;-4.81;100.00
2192;BME280;1102;49.718;11.902;2023-02-28T03:14:02;97087.72;;;-4.53;100.00
2192;BME280;1102;49.718;11.902;2023-02-28T03:24:50;97086.34;;;-4.56;100.00
2192;BME280;1102;49.718;11.902;2023-02-28T03:27:29;97082.38;;;-4.58;100.00
2192;BME280;1102;49.718;11.902;2023-02-28T03:32:35;97080.56;;;-4.51;100.00
2192;BME280;1102;49.718;11.902;2023-02-28T03:35:09;97080.72;;;-4.71;100.00
2192;BME280;1102;49.718;11.902;2023-02-28T03:37:40;97089.09;;;-4.76;100.00
2192;BME280;1102;49.718;11.902;2023-02-28T03:40:12;97076.13;;;-4.69;100.00
2192;BME280;1102;49.718;11.902;2023-02-28T03:42:43;97070.06;;;-4.81;100.00
2192;BME280;1102;49.718;11.902;2023-02-28T03:45:15;97083.25;;;-4.64;100.00
2192;BME280;1102;49.718;11.902;2023-02-28T03:48:09;97069.13;;;-4.87;100.00
2192;BME280;1102;49.718;11.902;2023-02-28T03:50:44;97057.09;;;-4.93;100.00
2192;BME280;1102;49.718;11.902;2023-02-28T03:53:14;97081.59;;;-4.84;100.00
2192;BME280;1102;49.718;11.902;2023-02-28T03:55:48;97049.03;;;-5.03;100.00
2192;BME280;1102;49.718;11.902;2023-02-28T04:03:38;97056.38;;;-5.07;100.00
2192;BME280;1102;49.718;11.902;2023-02-28T04:06:15;97081.88;;;-4.92;100.00
2192;BME280;1102;49.718;11.902;2023-02-28T04:08:43;97079.53;;;-5.00;100.00
2192;BME280;1102;49.718;11.902;2023-02-28T04:11:33;97098.03;;;-4.78;100.00
2192;BME280;1102;49.718;11.902;2023-02-28T04:14:02;97062.06;;;-4.98;100.00
2192;BME280;1102;49.718;11.902;2023-02-28T04:16:31;97065.81;;;-4.94;100.00
2192;BME280;1102;49.718;11.902;2023-02-28T04:19:03;97112.44;;;-4.70;100.00
2192;BME280;1102;49.718;11.902;2023-02-28T04:21:33;97104.72;;;-4.70;100.00
2192;BME280;1102;49.718;11.902;2023-02-28T04:24:00;97064.84;;;-4.99;100.00
2192;BME280;1102;49.718;11.902;2023-02-28T04:26:30;97102.78;;;-4.75;100.00
2192;BME280;1102;49.718;11.902;2023-02-28T04:28:58;97100.81;;;-4.80;100.00
2192;BME280;1102;49.718;11.902;2023-02-28T04:31:25;97104.50;;;-4.69;100.00
2192;BME280;1102;49.718;11.902;2023-02-28T04:33:52;97062.13;;;-5.04;100.00
2192;BME280;1102;49.718;11.902;2023-02-28T04:36:19;97076.75;;;-4.98;100.00
2192;BME280;1102;49.718;11.902;2023-02-28T04:38:46;97084.66;;;-4.93;100.00
2192;BME280;1102;49.718;11.902;2023-02-28T04:41:13;97055.88;;;-5.22;100.00
2192;BME280;1102;49.718;11.902;2023-02-28T04:43:40;97072.25;;;-5.10;100.00
2192;BME280;1102;49.718;11.902;2023-02-28T04:46:07;97110.13;;;-4.79;100.00
2192;BME280;1102;49.718;11.902;2023-02-28T04:48:36;97104.72;;;-4.70;100.00
2192;BME280;1102;49.718;11.902;2023-02-28T04:51:08;97068.41;;;-4.94;100.00
2192;BME280;1102;49.718;11.902;2023-02-28T04:53:36;97060.28;;;-4.97;100.00
2192;BME280;1102;49.718;11.902;2023-02-28T04:56:04;97097.81;;;-4.77;100.00
2192;BME280;1102;49.718;11.902;2023-02-28T04:58:31;97096.47;;;-4.79;100.00
2192;BME280;1102;49.718;11.902;2023-02-28T05:01:03;97087.97;;;-4.86;100.00
2192;BME280;1102;49.718;11.902;2023-02-28T05:03:30;97086.53;;;-4.82;100.00
2192;BME280;1102;49.718;11.902;2023-02-28T05:05:56;97090.09;;;-4.77;100.00
2192;BME280;1102;49.718;11.902;2023-02-28T05:08:23;97088.28;;;-4.76;100.00
2192;BME280;1102;49.718;11.902;2023-02-28T05:10:49;97105.50;;;-4.70;100.00
2192;BME280;1102;49.718;11.902;2023-02-28T05:13:16;97064.75;;;-4.86;100.00
2192;BME280;1102;49.718;11.902;2023-02-28T05:15:43;97073.03;;;-4.78;100.00
2192;BME280;1102;49.718;11.902;2023-02-28T05:18:09;96999.16;;;-5.22;100.00
2192;BME280;1102;49.718;11.902;2023-02-28T05:20:36;97035.25;;;-4.90;100.00
2192;BME280;1102;49.718;11.902;2023-02-28T05:23:04;97103.78;;;-4.51;100.00
2192;BME280;1102;49.718;11.902;2023-02-28T05:25:30;97077.44;;;-4.60;100.00
2192;BME280;1102;49.718;11.902;2023-02-28T05:27:57;97051.63;;;-4.78;100.00
2192;BME280;1102;49.718;11.902;2023-02-28T05:30:23;97093.69;;;-4.53;100.00
2192;BME280;1102;49.718;11.902;2023-02-28T05:32:51;97104.88;;;-4.40;100.00
2192;BME280;1102;49.718;11.902;2023-02-28T05:35:17;97082.81;;;-4.61;100.00
2192;BME280;1102;49.718;11.902;2023-02-28T05:37:44;97108.44;;;-4.41;100.00
2192;BME280;1102;49.718;11.902;2023-02-28T05:40:11;97097.25;;;-4.54;100.00
2192;BME280;1102;49.718;11.902;2023-02-28T05:42:38;97073.53;;;-4.69;100.00
2192;BME280;1102;49.718;11.902;2023-02-28T05:45:05;97105.72;;;-4.47;100.00
2192;BME280;1102;49.718;11.902;2023-02-28T05:47:33;97108.38;;;-4.53;100.00
2192;BME280;1102;49.718;11.902;2023-02-28T05:50:00;97077.69;;;-4.68;100.00
2192;BME280;1102;49.718;11.902;2023-02-28T05:52:28;97093.94;;;-4.61;100.00
2192;BME280;1102;49.718;11.902;2023-02-28T05:54:56;97088.44;;;-4.71;100.00
2192;BME280;1102;49.718;11.902;2023-02-28T05:57:23;97079.19;;;-4.79;100.00
2192;BME280;1102;49.718;11.902;2023-02-28T05:59:50;97095.19;;;-4.70;100.00
2192;BME280;1102;49.718;11.902;2023-02-28T06:02:17;97109.84;;;-4.64;100.00
2192;BME280;1102;49.718;11.902;2023-02-28T06:04:44;97117.69;;;-4.52;100.00
2192;BME280;1102;49.718;11.902;2023-02-28T06:07:12;97128.72;;;-4.45;100.00
2192;BME280;1102;49.718;11.902;2023-02-28T06:09:38;97127.38;;;-4.48;100.00
2192;BME280;1102;49.718;11.902;2023-02-28T06:12:06;97124.72;;;-4.41;100.00
2192;BME280;1102;49.718;11.902;2023-02-28T06:14:33;97124.91;;;-4.36;100.00
2192;BME280;1102;49.718;11.902;2023-02-28T06:17:01;97127.72;;;-4.44;100.00
2192;BME280;1102;49.718;11.902;2023-02-28T06:19:28;97127.16;;;-4.46;100.00
2192;BME280;1102;49.718;11.902;2023-02-28T06:21:56;97089.22;;;-4.70;100.00
2192;BME280;1102;49.718;11.902;2023-02-28T06:24:24;97113.19;;;-4.63;100.00
2192;BME280;1102;49.718;11.902;2023-02-28T06:26:54;97098.75;;;-4.71;100.00
2192;BME280;1102;49.718;11.902;2023-02-28T06:29:21;97115.78;;;-4.63;100.00
2192;BME280;1102;49.718;11.902;2023-02-28T06:31:48;97125.00;;;-4.49;100.00
2192;BME280;1102;49.718;11.902;2023-02-28T06:34:16;97132.31;;;-4.46;100.00
2192;BME280;1102;49.718;11.902;2023-02-28T06:36:43;97106.47;;;-4.64;100.00
2192;BME280;1102;49.718;11.902;2023-02-28T06:39:10;97127.94;;;-4.46;100.00
2192;BME280;1102;49.718;11.902;2023-02-28T06:41:36;97144.69;;;-4.30;100.00
2192;BME280;1102;49.718;11.902;2023-02-28T06:44:22;97133.22;;;-4.34;100.00
2192;BME280;1102;49.718;11.902;2023-02-28T06:46:49;97129.88;;;-4.41;100.00
2192;BME280;1102;49.718;11.902;2023-02-28T06:49:16;97131.06;;;-4.37;100.00
2192;BME280;1102;49.718;11.902;2023-02-28T06:51:44;97154.31;;;-4.19;100.00
2192;BME280;1102;49.718;11.902;2023-02-28T06:54:13;97127.63;;;-4.31;100.00
2192;BME280;1102;49.718;11.902;2023-02-28T06:56:40;97123.47;;;-4.32;100.00
2192;BME280;1102;49.718;11.902;2023-02-28T06:59:07;97164.50;;;-3.99;100.00
2192;BME280;1102;49.718;11.902;2023-02-28T07:01:33;97080.34;;;-4.50;100.00
2192;BME280;1102;49.718;11.902;2023-02-28T07:04:00;97148.59;;;-4.02;100.00
2192;BME280;1102;49.718;11.902;2023-02-28T07:06:27;97128.81;;;-4.08;100.00
2192;BME280;1102;49.718;11.902;2023-02-28T07:08:54;97177.78;;;-3.77;100.00
2192;BME280;1102;49.718;11.902;2023-02-28T07:11:23;97172.19;;;-3.74;100.00
2192;BME280;1102;49.718;11.902;2023-02-28T07:13:55;97173.47;;;-3.65;100.00
2192;BME280;1102;49.718;11.902;2023-02-28T07:16:23;97164.38;;;-3.67;100.00
2192;BME280;1102;49.718;11.902;2023-02-28T07:18:52;97168.97;;;-3.51;100.00
2192;BME280;1102;49.718;11.902;2023-02-28T07:21:19;97127.28;;;-3.73;100.00
2192;BME280;1102;49.718;11.902;2023-02-28T07:23:46;97102.59;;;-3.87;100.00
2192;BME280;1102;49.718;11.902;2023-02-28T07:26:15;97140.88;;;-3.47;100.00
2192;BME280;1102;49.718;11.902;2023-02-28T07:28:45;97177.31;;;-3.01;100.00
2192;BME280;1102;49.718;11.902;2023-02-28T07:31:13;97172.22;;;-3.07;100.00
2192;BME280;1102;49.718;11.902;2023-02-28T07:33:43;97152.28;;;-3.18;100.00
2192;BME280;1102;49.718;11.902;2023-02-28T07:36:13;97164.34;;;-3.12;100.00
2192;BME280;1102;49.718;11.902;2023-02-28T07:38:42;97160.28;;;-3.20;100.00
2192;BME280;1102;49.718;11.902;2023-02-28T07:41:13;97191.97;;;-2.94;100.00
2192;BME280;1102;49.718;11.902;2023-02-28T07:43:40;97182.00;;;-2.91;100.00
2192;BME280;1102;49.718;11.902;2023-02-28T07:46:09;97187.84;;;-2.84;100.00
2192;BME280;1102;49.718;11.902;2023-02-28T07:48:36;97194.53;;;-2.76;100.00
2192;BME280;1102;49.718;11.902;2023-02-28T07:51:03;97193.75;;;-2.77;100.00
2192;BME280;1102;49.718;11.902;2023-02-28T07:53:30;97141.94;;;-2.88;100.00
2192;BME280;1102;49.718;11.902;2023-02-28T07:55:58;97160.75;;;-2.81;100.00
2192;BME280;1102;49.718;11.902;2023-02-28T07:58:26;97192.09;;;-2.59;100.00
2192;BME280;1102;49.718;11.902;2023-02-28T08:00:54;97204.00;;;-2.70;100.00
2192;BME280;1102;49.718;11.902;2023-02-28T08:03:22;97195.94;;;-2.62;100.00
2192;BME280;1102;49.718;11.902;2023-02-28T08:05:49;97195.25;;;-2.57;100.00
2192;BME280;1102;49.718;11.902;2023-02-28T08:08:16;97191.09;;;-2.58;100.00
2192;BME280;1102;49.718;11.902;2023-02-28T08:10:43;97175.53;;;-2.70;100.00
2192;BME280;1102;49.718;11.902;2023-02-28T08:13:10;97192.47;;;-2.44;100.00
2192;BME280;1102;49.718;11.902;2023-02-28T08:15:36;97178.97;;;-2.46;100.00
2192;BME280;1102;49.718;11.902;2023-02-28T08:18:03;97188.09;;;-2.44;100.00
2192;BME280;1102;49.718;11.902;2023-02-28T08:20:30;97195.78;;;-2.37;100.00
2192;BME280;1102;49.718;11.902;2023-02-28T08:22:57;97183.28;;;-2.28;100.00
2192;BME280;1102;49.718;11.902;2023-02-28T08:25:23;97158.97;;;-2.16;100.00
2192;BME280;1102;49.718;11.902;2023-02-28T08:27:51;97201.34;;;-1.87;100.00
2192;BME280;1102;49.718;11.902;2023-02-28T08:30:18;97161.25;;;-1.96;100.00
2192;BME280;1102;49.718;11.902;2023-02-28T08:32:45;97158.88;;;-1.86;100.00
2192;BME280;1102;49.718;11.902;2023-02-28T08:35:12;97172.84;;;-1.87;100.00
2192;BME280;1102;49.718;11.902;2023-02-28T08:37:38;97160.56;;;-1.80;100.00
2192;BME280;1102;49.718;11.902;2023-02-28T08:40:06;97187.47;;;-1.57;100.00
2192;BME280;1102;49.718;11.902;2023-02-28T08:42:32;97177.19;;;-1.40;100.00
2192;BME280;1102;49.718;11.902;2023-02-28T08:44:59;97190.41;;;-1.42;100.00
2192;BME280;1102;49.718;11.902;2023-02-28T08:47:26;97166.75;;;-1.81;100.00
2192;BME280;1102;49.718;11.902;2023-02-28T08:49:53;97190.75;;;-1.62;100.00
2192;BME280;1102;49.718;11.902;2023-02-28T08:52:19;97183.50;;;-1.48;100.00
2192;BME280;1102;49.718;11.902;2023-02-28T08:54:46;97133.72;;;-1.62;100.00
2192;BME280;1102;49.718;11.902;2023-02-28T08:57:12;97176.16;;;-1.28;100.00
2192;BME280;1102;49.718;11.902;2023-02-28T08:59:39;97201.56;;;-1.01;100.00
2192;BME280;1102;49.718;11.902;2023-02-28T09:02:06;97191.53;;;-1.50;100.00
2192;BME280;1102;49.718;11.902;2023-02-28T09:04:33;97190.94;;;-1.28;100.00
2192;BME280;1102;49.718;11.902;2023-02-28T09:07:00;97185.59;;;-1.22;100.00
2192;BME280;1102;49.718;11.902;2023-02-28T09:09:27;97176.63;;;-1.31;100.00
2192;BME280;1102;49.718;11.902;2023-02-28T09:11:55;97189.31;;;-1.06;100.00
2192;BME280;1102;49.718;11.902;2023-02-28T09:14:22;97171.53;;;-0.97;100.00
2192;BME280;1102;49.718;11.902;2023-02-28T09:16:49;97201.53;;;-0.61;100.00
2192;BME280;1102;49.718;11.902;2023-02-28T09:19:15;97200.47;;;-0.77;100.00
2192;BME280;1102;49.718;11.902;2023-02-28T09:21:42;97177.47;;;-0.85;100.00
2192;BME280;1102;49.718;11.902;2023-02-28T09:24:09;97198.34;;;-0.80;100.00
2192;BME280;1102;49.718;11.902;2023-02-28T09:26:38;97170.44;;;-1.01;100.00
2192;BME280;1102;49.718;11.902;2023-02-28T09:29:16;97143.59;;;-1.47;100.00
2192;BME280;1102;49.718;11.902;2023-02-28T09:31:43;97206.47;;;-1.16;100.00
2192;BME280;1102;49.718;11.902;2023-02-28T09:34:10;97187.53;;;-1.17;100.00
2192;BME280;1102;49.718;11.902;2023-02-28T09:36:37;97161.75;;;-1.47;100.00
2192;BME280;1102;49.718;11.902;2023-02-28T09:39:12;97201.94;;;-1.21;100.00
2192;BME280;1102;49.718;11.902;2023-02-28T09:41:42;97191.94;;;-1.17;100.00
2192;BME280;1102;49.718;11.902;2023-02-28T09:44:36;97112.84;;;-1.43;100.00
2192;BME280;1102;49.718;11.902;2023-02-28T09:47:27;97165.47;;;-1.03;100.00
2192;BME280;1102;49.718;11.902;2023-02-28T09:49:58;97142.50;;;-1.11;100.00
2192;BME280;1102;49.718;11.902;2023-02-28T09:52:31;97196.56;;;-0.79;100.00
2192;BME280;1102;49.718;11.902;2023-02-28T09:55:22;97197.59;;;-0.92;100.00
2192;BME280;1102;49.718;11.902;2023-02-28T09:57:54;97203.47;;;-0.68;100.00
2192;BME280;1102;49.718;11.902;2023-02-28T10:09:01;97219.56;;;-0.26;100.00
2192;BME280;1102;49.718;11.902;2023-02-28T10:11:30;97217.44;;;-0.57;100.00
2192;BME280;1102;49.718;11.902;2023-02-28T10:14:15;97217.75;;;-0.54;100.00
2192;BME280;1102;49.718;11.902;2023-02-28T10:19:34;97222.91;;;-0.42;100.00
2192;BME280;1102;49.718;11.902;2023-02-28T10:25:19;97203.69;;;-0.41;100.00
2192;BME280;1102;49.718;11.902;2023-02-28T10:27:47;97217.09;;;-0.16;100.00
2192;BME280;1102;49.718;11.902;2023-02-28T10:30:13;97184.75;;;-0.25;100.00
2192;BME280;1102;49.718;11.902;2023-02-28T10:32:45;97185.84;;;-0.21;100.00
2192;BME280;1102;49.718;11.902;2023-02-28T10:35:18;97215.00;;;0.15;100.00
2192;BME280;1102;49.718;11.902;2023-02-28T10:37:47;97209.16;;;0.08;100.00
2192;BME280;1102;49.718;11.902;2023-02-28T10:45:29;97202.38;;;0.23;100.00
2192;BME280;1102;49.718;11.902;2023-02-28T10:50:51;97218.78;;;0.41;100.00
2192;BME280;1102;49.718;11.902;2023-02-28T10:56:19;97204.97;;;0.40;100.00
2192;BME280;1102;49.718;11.902;2023-02-28T10:59:03;97192.47;;;0.20;100.00
2192;BME280;1102;49.718;11.902;2023-02-28T11:01:46;97134.28;;;-0.12;100.00
2192;BME280;1102;49.718;11.902;2023-02-28T11:07:20;97214.75;;;0.72;100.00
2192;BME280;1102;49.718;11.902;2023-02-28T11:09:52;97203.84;;;0.75;100.00
2192;BME280;1102;49.718;11.902;2023-02-28T11:14:56;97195.25;;;0.74;100.00
2192;BME280;1102;49.718;11.902;2023-02-28T11:17:27;97180.34;;;0.48;100.00
2192;BME280;1102;49.718;11.902;2023-02-28T11:19:57;97203.81;;;0.70;100.00
2192;BME280;1102;49.718;11.902;2023-02-28T11:22:27;97201.56;;;0.78;100.00
2192;BME280;1102;49.718;11.902;2023-02-28T11:24:59;97155.41;;;0.30;100.00
2192;BME280;1102;49.718;11.902;2023-02-28T11:29:58;97194.16;;;0.48;100.00
2192;BME280;1102;49.718;11.902;2023-02-28T11:32:29;97194.34;;;0.42;100.00
2192;BME280;1102;49.718;11.902;2023-02-28T11:37:36;97175.28;;;0.58;100.00
2192;BME280;1102;49.718;11.902;2023-02-28T11:40:15;97161.25;;;0.20;100.00
2192;BME280;1102;49.718;11.902;2023-02-28T11:48:22;97202.81;;;0.76;100.00
2192;BME280;1102;49.718;11.902;2023-02-28T12:01:41;97201.72;;;1.15;99.35
2192;BME280;1102;49.718;11.902;2023-02-28T12:04:20;97194.59;;;1.06;98.16
2192;BME280;1102;49.718;11.902;2023-02-28T12:09:35;97200.47;;;0.96;99.21
2192;BME280;1102;49.718;11.902;2023-02-28T12:28:44;97196.44;;;2.23;92.85
2192;BME280;1102;49.718;11.902;2023-02-28T12:31:41;97193.69;;;2.03;91.15
2192;BME280;1102;49.718;11.902;2023-02-28T12:34:19;97178.78;;;1.98;91.69
2192;BME280;1102;49.718;11.902;2023-02-28T12:36:48;97168.22;;;2.15;91.24
2192;BME280;1102;49.718;11.902;2023-02-28T12:39:22;97192.16;;;2.07;91.72
2192;BME280;1102;49.718;11.902;2023-02-28T12:42:03;97194.81;;;2.59;90.57
2192;BME280;1102;49.718;11.902;2023-02-28T12:44:49;97160.56;;;2.46;91.62
2192;BME280;1102;49.718;11.902;2023-02-28T12:47:18;97191.72;;;2.62;89.98
2192;BME280;1102;49.718;11.902;2023-02-28T12:50:07;97193.44;;;2.47;91.17
2192;BME280;1102;49.718;11.902;2023-02-28T12:52:46;97140.06;;;2.17;89.96
2192;BME280;1102;49.718;11.902;2023-02-28T12:55:21;97174.06;;;2.37;90.20
2192;BME280;1102;49.718;11.902;2023-02-28T13:09:52;97178.41;;;3.42;87.96
2192;BME280;1102;49.718;11.902;2023-02-28T13:12:20;97168.72;;;2.59;88.01
2192;BME280;1102;49.718;11.902;2023-02-28T13:14:49;97182.13;;;2.78;88.32
2192;BME280;1102;49.718;11.902;2023-02-28T13:17:20;97128.22;;;3.85;88.30
2192;BME280;1102;49.718;11.902;2023-02-28T13:22:37;97180.00;;;3.58;85.89
2192;BME280;1102;49.718;11.902;2023-02-28T13:28:13;97187.06;;;3.52;85.12
2192;BME280;1102;49.718;11.902;2023-02-28T13:31:03;97141.06;;;3.62;85.26
2192;BME280;1102;49.718;11.902;2023-02-28T13:38:49;97185.75;;;4.31;84.19
2192;BME280;1102;49.718;11.902;2023-02-28T13:44:08;97187.28;;;4.58;83.87
2192;BME280;1102;49.718;11.902;2023-02-28T13:47:15;97139.97;;;4.19;82.07
2192;BME280;1102;49.718;11.902;2023-02-28T13:51:52;97172.97;;;4.14;82.55
2192;BME280;1102;49.718;11.902;2023-02-28T13:57:11;97182.75;;;3.01;85.40
2192;BME280;1102;49.718;11.902;2023-02-28T14:05:18;97005.13;;;3.11;84.29
2192;BME280;1102;49.718;11.902;2023-02-28T14:07:55;97132.16;;;3.83;83.20
2192;BME280;1102;49.718;11.902;2023-02-28T14:10:31;97121.38;;;4.20;82.89
2192;BME280;1102;49.718;11.902;2023-02-28T14:15:48;97184.66;;;4.48;82.46
2192;BME280;1102;49.718;11.902;2023-02-28T14:18:36;97179.75;;;4.00;82.93
2192;BME280;1102;49.718;11.902;2023-02-28T14:27:32;97157.75;;;4.11;82.31
2192;BME280;1102;49.718;11.902;2023-02-28T14:30:00;97150.97;;;5.00;81.11
2192;BME280;1102;49.718;11.902;2023-02-28T14:32:49;97135.31;;;4.80;80.50
2192;BME280;1102;49.718;11.902;2023-02-28T14:37:55;97124.06;;;3.79;81.61
2192;BME280;1102;49.718;11.902;2023-02-28T14:40:33;97157.78;;;3.71;83.24
2192;BME280;1102;49.718;11.902;2023-02-28T14:43:06;97135.78;;;3.41;83.48
2192;BME280;1102;49.718;11.902;2023-02-28T14:45:35;97130.81;;;4.06;82.81
2192;BME280;1102;49.718;11.902;2023-02-28T14:48:04;97117.94;;;4.35;82.95
2192;BME280;1102;49.718;11.902;2023-02-28T14:50:37;97148.06;;;4.12;82.76
2192;BME280;1102;49.718;11.902;2023-02-28T14:53:06;97132.16;;;3.58;82.93
2192;BME280;1102;49.718;11.902;2023-02-28T14:55:44;97105.19;;;3.11;83.74
2192;BME280;1102;49.718;11.902;2023-02-28T15:00:55;97151.94;;;4.50;83.33
2192;BME280;1102;49.718;11.902;2023-02-28T15:03:33;97154.59;;;4.25;83.09
2192;BME280;1102;49.718;11.902;2023-02-28T15:06:06;97126.22;;;4.62;80.43
2192;BME280;1102;49.718;11.902;2023-02-28T15:08:33;97108.09;;;3.71;81.89
2192;BME280;1102;49.718;11.902;2023-02-28T15:11:15;97109.41;;;3.89;83.10
2192;BME280;1102;49.718;11.902;2023-02-28T15:13:45;97138.41;;;3.72;82.96
2192;BME280;1102;49.718;11.902;2023-02-28T15:16:22;97143.91;;;3.45;84.05
2192;BME280;1102;49.718;11.902;2023-02-28T15:18:53;97152.28;;;3.52;83.44
2192;BME280;1102;49.718;11.902;2023-02-28T15:21:25;97154.09;;;3.36;84.11
2192;BME280;1102;49.718;11.902;2023-02-28T15:24:00;97106.16;;;2.85;84.29
2192;BME280;1102;49.718;11.902;2023-02-28T15:26:33;97148.31;;;3.24;84.03
2192;BME280;1102;49.718;11.902;2023-02-28T15:29:04;97147.59;;;3.49;84.45
2192;BME280;1102;49.718;11.902;2023-02-28T15:31:40;97121.66;;;3.22;84.51
2192;BME280;1102;49.718;11.902;2023-02-28T15:34:36;97141.63;;;2.71;85.44
2192;BME280;1102;49.718;11.902;2023-02-28T15:40:29;97142.34;;;2.08;88.08
2192;BME280;1102;49.718;11.902;2023-02-28T15:43:04;97148.69;;;1.86;89.69
2192;BME280;1102;49.718;11.902;2023-02-28T15:45:44;97124.97;;;1.50;90.04
2192;BME280;1102;49.718;11.902;2023-02-28T15:48:43;97144.78;;;1.51;91.30
2192;BME280;1102;49.718;11.902;2023-02-28T15:51:18;97130.00;;;1.30;91.85
2192;BME280;1102;49.718;11.902;2023-02-28T15:53:54;97155.13;;;1.46;93.15
2192;BME280;1102;49.718;11.902;2023-02-28T15:56:28;97107.34;;;1.03;93.05
2192;BME280;1102;49.718;11.902;2023-02-28T15:59:03;97151.03;;;1.23;93.76
2192;BME280;1102;49.718;11.902;2023-02-28T16:01:36;97144.28;;;1.27;93.83
2192;BME280;1102;49.718;11.902;2023-02-28T16:04:05;97136.75;;;1.04;95.71
2192;BME280;1102;49.718;11.902;2023-02-28T16:06:36;97150.16;;;1.12;95.85
2192;BME280;1102;49.718;11.902;2023-02-28T16:09:06;97148.41;;;0.96;97.37
2192;BME280;1102;49.718;11.902;2023-02-28T16:11:38;97124.13;;;0.91;97.25
2192;BME280;1102;49.718;11.902;2023-02-28T16:14:05;97146.88;;;1.00;98.01
2192;BME280;1102;49.718;11.902;2023-02-28T16:16:32;97134.50;;;0.85;98.40
2192;BME280;1102;49.718;11.902;2023-02-28T16:18:59;97138.91;;;0.85;100.00